You are listening to:
KJXN Del/Gnd/Twr/App - Jackson, Michigan, United States

KJXN 152256Z 24008KT 10SM CLR 31/21 A3000 RMK AO2 SLP153 T03110206 $

If stream does not start automatically press the play button